Time;durP1;ratioP1;P1;durP2;ratioP2;P2;SDS_P1;SDS_P2;PMS_P1;PMS_P2;Temp;Humidity;BMP_temperature;BMP_pressure;BME280_temperature;BME280_humidity;BME280_pressure;Samples;Min_cycle;Max_cycle;Signal;HPM_P1;HPM_P2
2022/09/21 05:14:02;;;;;;;20.13;12.23;;;;;;;40.57;34.04;101134.63;6087188;22;2533411;-74
2022/09/21 05:16:28;;;;;;;17.17;9.57;;;;;;;40.48;34.23;101136.53;6187559;23;20400;-74
2022/09/21 05:18:54;;;;;;;18.90;9.40;;;;;;;40.65;34.00;101142.00;6187685;23;20462;-73
2022/09/21 05:21:21;;;;;;;24.13;10.97;;;;;;;40.60;34.25;101149.53;6187751;23;20387;-74
2022/09/21 05:23:47;;;;;;;22.10;11.80;;;;;;;40.46;34.46;101155.88;6187764;23;20375;-71
2022/09/21 05:26:12;;;;;;;17.07;12.00;;;;;;;40.66;34.05;101175.44;6186966;23;20854;-71
2022/09/21 05:28:39;;;;;;;20.43;10.87;;;;;;;40.58;34.24;101168.88;6187797;23;20152;-73
2022/09/21 05:31:17;;;;;;;24.47;12.70;;;;;;;40.67;34.52;101175.13;6187587;23;20604;-73
2022/09/21 05:33:57;;;;;;;24.03;12.17;;;;;;;40.68;33.86;101174.00;6187570;23;20430;-72
2022/09/21 05:36:32;;;;;;;19.73;12.03;;;;;;;40.58;34.12;101168.88;6187773;23;20390;-74
2022/09/21 05:38:58;;;;;;;15.83;11.80;;;;;;;40.67;33.81;101172.41;6187778;23;20389;-74
2022/09/21 05:41:24;;;;;;;24.13;12.27;;;;;;;40.35;34.22;101178.22;6187683;23;20379;-72
2022/09/21 05:43:50;;;;;;;20.23;11.77;;;;;;;40.16;34.51;101184.72;6187915;23;20474;-70
2022/09/21 05:46:49;;;;;;;24.53;12.50;;;;;;;40.17;34.60;101185.53;6187806;23;20723;-70
2022/09/21 05:49:31;;;;;;;18.00;11.70;;;;;;;40.22;34.50;101186.19;6187811;23;20486;-71
2022/09/21 05:51:57;;;;;;;20.90;13.53;;;;;;;39.98;35.30;101191.97;6187861;23;20902;-71
2022/09/21 05:54:51;;;;;;;19.37;12.23;;;;;;;40.01;35.26;101190.53;6188818;23;20390;-72
2022/09/21 05:57:42;;;;;;;22.13;11.93;;;;;;;40.17;34.65;101194.47;6135273;23;20160;-72
2022/09/21 06:00:14;;;;;;;19.90;12.83;;;;;;;40.36;34.73;101196.94;6189626;23;20372;-70
2022/09/21 06:03:30;;;;;;;25.37;11.63;;;;;;;40.48;34.23;101205.31;6189402;23;20375;-70
2022/09/21 06:05:57;;;;;;;21.20;10.90;;;;;;;40.33;34.94;101210.34;6160701;23;20363;-70
2022/09/21 06:08:24;;;;;;;26.87;12.70;;;;;;;40.48;33.96;101207.22;6189689;23;20441;-70
2022/09/21 06:10:50;;;;;;;24.43;12.67;;;;;;;40.48;34.33;101215.38;6189420;23;20433;-70
2022/09/21 06:13:17;;;;;;;28.03;15.93;;;;;;;40.64;34.25;101227.44;6189370;23;20422;-70
2022/09/21 06:15:43;;;;;;;21.27;12.70;;;;;;;40.48;34.52;101234.41;6163105;23;20436;-70
2022/09/21 06:18:10;;;;;;;22.37;14.10;;;;;;;40.26;34.32;101236.06;6159905;23;20394;-72
2022/09/21 06:20:36;;;;;;;26.47;15.70;;;;;;;40.21;35.07;101236.22;6159691;23;20400;-72
2022/09/21 06:23:10;;;;;;;19.00;16.27;;;;;;;40.47;34.49;101238.22;6185741;23;20407;-70
2022/09/21 06:25:36;;;;;;;28.50;16.63;;;;;;;40.61;34.38;101238.94;6159709;23;20499;-69
2022/09/21 06:28:11;;;;;;;42.60;27.70;;;;;;;40.54;34.60;101244.84;6159551;23;20947;-70
2022/09/21 06:30:38;;;;;;;43.17;26.43;;;;;;;40.71;33.87;101252.25;6186403;23;20367;-70
2022/09/21 06:33:06;;;;;;;42.53;31.07;;;;;;;40.44;34.95;101261.41;6184195;23;20420;-69
2022/09/21 06:35:34;;;;;;;42.50;32.90;;;;;;;40.53;34.89;101254.13;6158136;23;20468;-72
2022/09/21 06:38:02;;;;;;;52.43;35.60;;;;;;;40.70;34.30;101261.53;6158192;23;20376;-71
2022/09/21 06:40:29;;;;;;;45.40;33.70;;;;;;;40.74;34.45;101257.03;6158921;23;20376;-70
2022/09/21 06:42:59;;;;;;;42.30;28.40;;;;;;;40.47;34.96;101260.81;6158833;23;20369;-70
2022/09/21 06:45:27;;;;;;;42.47;28.97;;;;;;;40.70;34.64;101269.69;6157986;23;20777;-70
2022/09/21 06:47:53;;;;;;;42.83;27.30;;;;;;;40.67;34.54;101269.50;6159094;23;20380;-71
2022/09/21 06:50:19;;;;;;;46.67;28.77;;;;;;;40.71;34.53;101271.28;6159444;23;20455;-70
2022/09/21 06:52:46;;;;;;;38.30;26.57;;;;;;;40.58;34.97;101271.38;6159053;23;20187;-70
2022/09/21 06:55:12;;;;;;;47.67;34.23;;;;;;;40.57;34.80;101277.94;6159204;23;20837;-70
2022/09/21 06:57:38;;;;;;;41.03;28.93;;;;;;;40.65;34.60;101272.53;6185734;23;20363;-69
2022/09/21 07:00:07;;;;;;;38.43;26.13;;;;;;;40.59;34.72;101273.00;6159134;23;20380;-70
2022/09/21 07:02:33;;;;;;;35.43;22.70;;;;;;;40.57;34.67;101270.59;6159232;23;20377;-71
2022/09/21 07:04:59;;;;;;;32.10;20.10;;;;;;;40.77;34.53;101278.19;6186063;23;20414;-76
2022/09/21 07:07:29;;;;;;;28.93;20.53;;;;;;;40.88;34.39;101277.88;6159132;23;20438;-74
2022/09/21 07:09:55;;;;;;;33.87;18.73;;;;;;;40.66;34.90;101287.75;6186129;23;20430;-76
2022/09/21 07:12:21;;;;;;;19.90;10.90;;;;;;;40.55;34.48;101286.41;6159195;23;20428;-77
2022/09/21 07:14:47;;;;;;;34.40;13.30;;;;;;;40.25;35.38;101274.44;6158996;23;20927;-74
2022/09/21 07:17:13;;;;;;;15.43;11.30;;;;;;;40.59;34.73;101284.69;6184128;23;20176;-76
2022/09/21 07:19:40;;;;;;;16.90;10.83;;;;;;;40.83;34.77;101287.00;6159301;23;20589;-74
2022/09/21 07:22:06;;;;;;;25.40;10.63;;;;;;;40.88;34.33;101297.72;6159201;23;20368;-74
2022/09/21 07:24:32;;;;;;;18.57;9.40;;;;;;;40.80;34.13;101309.38;6184292;23;20792;-74
2022/09/21 07:26:58;;;;;;;19.00;11.10;;;;;;;40.80;34.89;101320.25;6159239;23;20887;-74
2022/09/21 07:29:24;;;;;;;28.03;12.17;;;;;;;41.18;33.86;101317.81;6159155;23;20236;-73
2022/09/21 07:31:50;;;;;;;18.33;11.10;;;;;;;41.00;34.27;101327.06;6183923;23;20423;-74
2022/09/21 07:34:16;;;;;;;18.07;10.20;;;;;;;40.94;34.00;101337.28;6183716;23;20393;-74
2022/09/21 07:36:42;;;;;;;19.43;13.20;;;;;;;41.06;34.30;101344.84;6159021;23;20408;-73
2022/09/21 07:39:09;;;;;;;25.13;10.80;;;;;;;41.33;33.64;101341.09;6158707;23;20184;-73
2022/09/21 07:41:35;;;;;;;25.67;10.70;;;;;;;41.60;33.33;101351.66;6183820;23;20196;-72
2022/09/21 07:44:02;;;;;;;17.13;11.40;;;;;;;41.63;33.33;101355.69;6183860;23;20376;-73
2022/09/21 07:46:28;;;;;;;21.13;10.03;;;;;;;41.65;33.09;101349.91;6158680;23;20440;-74
2022/09/21 07:48:55;;;;;;;11.90;9.67;;;;;;;41.63;33.30;101361.13;6182888;23;20920;-76
2022/09/21 07:51:22;;;;;;;25.30;9.97;;;;;;;41.70;33.14;101357.94;6157362;23;20419;-75
2022/09/21 07:53:57;;;;;;;14.70;10.53;;;;;;;41.50;33.23;101360.19;6157288;23;20419;-74
2022/09/21 07:56:24;;;;;;;24.03;12.83;;;;;;;41.78;32.80;101365.31;6157503;23;20412;-75
2022/09/21 07:59:06;;;;;;;31.93;10.37;;;;;;;41.72;32.36;101361.94;6182926;23;20380;-76
2022/09/21 08:01:40;;;;;;;22.13;9.80;;;;;;;41.82;32.62;101360.84;6183327;23;20386;-76
2022/09/21 08:04:09;;;;;;;18.23;9.77;;;;;;;41.36;33.41;101369.59;6158441;23;20383;-75
2022/09/21 08:06:38;;;;;;;20.33;10.13;;;;;;;41.51;33.14;101372.66;6158467;23;20384;-74
2022/09/21 08:09:05;;;;;;;16.57;9.43;;;;;;;41.69;32.70;101378.13;6158326;23;20514;-75
2022/09/21 08:11:32;;;;;;;18.63;10.37;;;;;;;41.81;32.87;101387.28;6158389;23;20392;-74
2022/09/21 08:14:01;;;;;;;13.70;9.07;;;;;;;41.75;32.76;101383.13;6184763;23;20472;-74
2022/09/21 08:16:28;;;;;;;16.67;9.43;;;;;;;41.73;32.82;101395.41;6158335;23;20420;-74
2022/09/21 08:18:54;;;;;;;18.87;9.53;;;;;;;41.63;32.90;101391.09;6158264;23;20388;-74
2022/09/21 08:21:21;;;;;;;20.03;11.23;;;;;;;41.79;32.34;101399.63;6158688;23;20737;-75
2022/09/21 08:23:48;;;;;;;19.27;10.93;;;;;;;41.80;32.78;101401.22;6158671;23;20203;-74
2022/09/21 08:26:19;;;;;;;18.87;11.27;;;;;;;41.95;32.61;101397.22;6158693;23;20737;-75
2022/09/21 08:28:50;;;;;;;20.93;10.00;;;;;;;41.74;32.74;101406.03;6158673;23;20376;-77
2022/09/21 08:31:21;;;;;;;14.67;10.17;;;;;;;41.90;32.41;101413.72;6158186;23;20784;-73
2022/09/21 08:33:48;;;;;;;14.10;10.43;;;;;;;41.52;32.94;101414.31;6185394;23;20817;-71
2022/09/21 08:36:14;;;;;;;16.97;10.40;;;;;;;41.81;32.54;101419.97;6158487;23;20384;-71
2022/09/21 08:38:40;;;;;;;16.73;10.23;;;;;;;41.46;32.98;101421.84;6158878;23;20918;-74
2022/09/21 08:41:40;;;;;;;12.43;8.33;;;;;;;41.73;32.71;101423.47;6185214;23;20357;-76
2022/09/21 08:44:22;;;;;;;21.37;9.67;;;;;;;41.58;33.16;101413.84;6158318;23;20430;-73
2022/09/21 08:47:12;;;;;;;22.03;11.97;;;;;;;41.64;32.66;101419.94;6158450;23;20407;-72
2022/09/21 08:49:44;;;;;;;16.97;9.73;;;;;;;41.69;32.89;101436.13;6158571;23;20467;-72
2022/09/21 08:52:16;;;;;;;18.47;9.50;;;;;;;41.67;33.14;101426.66;6157690;23;20434;-73
2022/09/21 08:54:59;;;;;;;19.27;10.80;;;;;;;41.75;32.58;101418.53;6158297;23;20380;-72
2022/09/21 08:57:29;;;;;;;16.83;10.33;;;;;;;41.89;32.77;101420.31;6158438;23;20472;-71
2022/09/21 08:59:56;;;;;;;17.87;12.00;;;;;;;41.65;32.70;101429.72;6185185;23;20352;-70
2022/09/21 09:03:00;;;;;;;19.00;9.43;;;;;;;41.77;32.42;101421.75;6158320;23;20432;-72
2022/09/21 09:05:44;;;;;;;18.03;12.53;;;;;;;41.58;33.36;101419.28;6065337;23;20379;-72
2022/09/21 09:08:29;;;;;;;25.63;10.20;;;;;;;41.68;33.14;101418.19;6041343;23;20384;-73
2022/09/21 09:11:31;;;;;;;20.23;9.57;;;;;;;41.96;32.41;101428.78;6125206;23;20368;-76
2022/09/21 09:14:19;;;;;;;19.67;8.77;;;;;;;41.56;32.85;101412.56;6157892;23;20431;-75
2022/09/21 09:16:57;;;;;;;15.30;9.40;;;;;;;41.86;33.02;101419.81;6158105;23;20384;-71
2022/09/21 09:19:45;;;;;;;13.40;9.30;;;;;;;41.70;32.90;101417.88;6158240;23;20458;-71
2022/09/21 09:22:18;;;;;;;20.20;10.80;;;;;;;41.68;32.83;101417.34;6157737;23;20923;-71
2022/09/21 09:24:51;;;;;;;15.47;8.70;;;;;;;41.90;32.86;101411.00;6155958;23;20404;-77
2022/09/21 09:27:22;;;;;;;18.23;8.77;;;;;;;41.92;32.45;101412.28;6158000;23;20785;-73
2022/09/21 09:30:01;;;;;;;26.20;10.20;;;;;;;41.91;32.90;101413.41;6158441;23;20450;-74
2022/09/21 09:32:36;;;;;;;15.87;8.97;;;;;;;42.09;32.19;101419.63;6158144;23;20775;-74
2022/09/21 09:35:15;;;;;;;14.07;8.30;;;;;;;42.00;32.45;101419.66;6158211;23;20517;-75
2022/09/21 09:37:42;;;;;;;15.43;8.17;;;;;;;42.00;32.38;101416.13;6158231;23;20391;-75
2022/09/21 09:40:12;;;;;;;12.13;9.13;;;;;;;42.11;32.19;101411.94;6158319;23;20458;-75
2022/09/21 09:42:57;;;;;;;14.00;8.90;;;;;;;42.09;31.93;101412.25;6158041;23;20450;-75
2022/09/21 09:45:35;;;;;;;17.23;10.80;;;;;;;41.92;32.59;101408.75;6157986;23;20879;-76
2022/09/21 09:48:17;;;;;;;15.07;8.70;;;;;;;41.94;32.69;101406.53;6158260;23;20376;-76
2022/09/21 09:50:43;;;;;;;23.40;9.17;;;;;;;41.71;32.54;101401.19;6158103;23;20380;-76
2022/09/21 09:53:22;;;;;;;20.50;10.30;;;;;;;41.83;32.51;101398.66;6184938;23;20348;-76
2022/09/21 09:55:51;;;;;;;22.17;11.77;;;;;;;42.08;32.40;101399.75;6182686;23;20455;-77
2022/09/21 09:58:37;;;;;;;13.27;10.00;;;;;;;42.04;32.35;101389.81;6158146;23;20459;-76
2022/09/21 10:01:03;;;;;;;15.40;8.53;;;;;;;41.80;32.45;101377.50;6182717;23;20447;-75
2022/09/21 10:03:29;;;;;;;16.50;9.17;;;;;;;41.47;32.68;101379.06;6158174;23;20503;-76
2022/09/21 10:05:55;;;;;;;20.83;10.20;;;;;;;41.82;32.53;101379.91;6157584;23;20761;-74
2022/09/21 10:08:30;;;;;;;21.13;9.53;;;;;;;42.03;32.38;101374.59;6157899;23;20386;-76
2022/09/21 10:10:56;;;;;;;17.07;10.37;;;;;;;42.07;32.20;101375.56;6157925;23;20411;-75
2022/09/21 10:13:51;;;;;;;16.03;8.87;;;;;;;42.05;32.31;101377.78;6157919;23;20376;-74
2022/09/21 10:16:17;;;;;;;14.90;8.97;;;;;;;42.03;32.37;101364.50;6154525;23;20424;-75
2022/09/21 10:18:57;;;;;;;24.33;9.00;;;;;;;41.61;32.94;101357.91;6157895;23;20387;-74
2022/09/21 10:21:26;;;;;;;15.23;9.10;;;;;;;41.79;32.90;101359.53;6157752;23;20540;-74
2022/09/21 10:24:25;;;;;;;19.33;10.70;;;;;;;41.80;32.33;101350.25;6157489;23;20463;-74
2022/09/21 10:27:02;;;;;;;23.80;10.40;;;;;;;41.91;32.30;101336.31;6157950;23;20829;-74
2022/09/21 10:29:39;;;;;;;24.67;9.33;;;;;;;41.93;32.07;101351.22;6157668;23;20391;-74
2022/09/21 10:32:11;;;;;;;18.27;8.73;;;;;;;42.06;32.05;101343.97;6183693;23;20852;-73
2022/09/21 10:34:39;;;;;;;21.47;12.40;;;;;;;42.28;32.08;101343.78;6156034;23;20380;-77
2022/09/21 10:37:26;;;;;;;15.27;9.17;;;;;;;42.20;32.13;101335.63;6156391;23;20434;-76
2022/09/21 10:39:52;;;;;;;17.70;8.10;;;;;;;42.00;32.18;101334.38;6155447;23;20380;-73
2022/09/21 10:42:20;;;;;;;14.20;8.00;;;;;;;42.20;31.84;101324.72;6157394;23;20426;-74
2022/09/21 10:44:49;;;;;;;17.03;8.57;;;;;;;42.20;31.99;101319.28;6184969;23;20129;-73
2022/09/21 10:47:21;;;;;;;12.60;8.77;;;;;;;42.10;32.20;101326.63;6159124;23;20376;-74
2022/09/21 10:49:51;;;;;;;16.40;8.97;;;;;;;42.10;32.12;101323.13;6185640;23;20388;-74
2022/09/21 10:52:23;;;;;;;16.90;8.37;;;;;;;42.35;31.73;101322.25;6159168;23;20447;-74
2022/09/21 10:54:53;;;;;;;14.53;9.27;;;;;;;42.30;31.75;101314.28;6158861;23;20407;-73
2022/09/21 10:57:22;;;;;;;14.80;7.93;;;;;;;42.40;31.48;101308.44;6159273;23;20527;-73
2022/09/21 10:59:48;;;;;;;13.40;7.77;;;;;;;42.31;31.55;101304.97;6159575;23;20376;-74
2022/09/21 11:02:28;;;;;;;14.43;9.37;;;;;;;42.22;32.29;101295.22;6159380;23;20480;-74
2022/09/21 11:05:15;;;;;;;22.97;8.87;;;;;;;42.70;31.61;101285.88;6159088;23;20380;-74
2022/09/21 11:08:00;;;;;;;19.13;9.67;;;;;;;42.38;31.83;101278.00;6159654;23;20388;-74
2022/09/21 11:10:37;;;;;;;17.43;9.90;;;;;;;42.36;31.35;101272.06;6159524;23;20434;-73
2022/09/21 11:13:22;;;;;;;18.33;10.03;;;;;;;42.16;31.94;101248.25;6158722;23;20888;-73
2022/09/21 11:15:54;;;;;;;22.93;10.87;;;;;;;41.91;32.96;101246.38;6159046;23;20440;-73
2022/09/21 11:18:23;;;;;;;14.90;9.23;;;;;;;42.01;32.60;101246.84;6159087;23;20380;-73
2022/09/21 11:20:57;;;;;;;16.60;10.97;;;;;;;42.19;32.47;101236.69;6159364;23;20434;-74
2022/09/21 11:23:56;;;;;;;15.23;9.37;;;;;;;41.92;33.13;101220.72;6159305;23;20507;-73
2022/09/21 11:26:28;;;;;;;15.47;8.80;;;;;;;41.87;33.20;101219.00;6159202;23;20852;-74
2022/09/21 11:29:01;;;;;;;21.30;10.20;;;;;;;42.09;32.67;101223.38;6159125;23;20415;-75
2022/09/21 11:31:51;;;;;;;12.40;8.30;;;;;;;42.30;32.34;101216.13;6159029;23;20952;-74
2022/09/21 11:34:43;;;;;;;16.80;9.70;;;;;;;41.92;32.67;101209.81;6159074;23;20717;-73
2022/09/21 11:37:49;;;;;;;12.00;9.13;;;;;;;42.09;32.73;101210.56;6159140;23;20384;-75
2022/09/21 11:40:31;;;;;;;15.30;9.60;;;;;;;42.11;32.75;101212.94;6159241;23;20391;-73
2022/09/21 11:43:17;;;;;;;23.00;9.17;;;;;;;41.90;33.43;101210.16;6159250;23;20983;-78
2022/09/21 11:45:49;;;;;;;16.43;8.50;;;;;;;41.96;32.97;101216.22;6157809;23;20380;-77
2022/09/21 11:48:27;;;;;;;17.77;8.70;;;;;;;42.53;32.36;101213.09;6159397;23;20495;-80
2022/09/21 11:51:04;;;;;;;13.57;8.27;;;;;;;42.30;32.66;101210.66;6185321;23;20356;-77
2022/09/21 11:54:14;;;;;;;17.13;9.40;;;;;;;42.49;32.52;101201.25;6158378;23;20379;-77
2022/09/21 11:57:08;;;;;;;15.93;8.77;;;;;;;42.58;32.04;101182.94;6146504;23;20380;-79
2022/09/21 11:59:42;;;;;;;23.20;10.10;;;;;;;42.40;32.50;101196.66;6155840;23;20392;-78
2022/09/21 12:02:33;;;;;;;13.13;8.13;;;;;;;42.29;32.95;101192.69;6156524;23;20388;-77
2022/09/21 12:05:38;;;;;;;16.23;9.70;;;;;;;42.06;32.64;101188.63;6158201;23;20408;-78
2022/09/21 12:08:33;;;;;;;22.27;9.70;;;;;;;41.83;33.14;101171.72;6180031;23;20407;-77
2022/09/21 12:11:34;;;;;;;27.70;9.97;;;;;;;41.70;33.35;101175.44;6157106;23;20430;-76
2022/09/21 12:14:14;;;;;;;18.70;8.70;;;;;;;41.79;32.97;101165.31;6184223;23;20470;-77
2022/09/21 12:16:58;;;;;;;27.27;8.77;;;;;;;42.18;32.75;101161.50;6157068;23;20418;-74
2022/09/21 12:19:27;;;;;;;14.53;8.87;;;;;;;41.96;33.27;101159.81;6157174;23;20414;-79
2022/09/21 12:22:10;;;;;;;23.97;10.43;;;;;;;42.16;33.01;101143.84;6157217;23;20395;-76
2022/09/21 12:24:43;;;;;;;18.83;10.67;;;;;;;41.83;33.43;101139.81;6157289;23;20724;-75
2022/09/21 12:27:38;;;;;;;13.63;9.10;;;;;;;42.27;32.31;101129.53;6157170;23;20440;-75
2022/09/21 12:30:18;;;;;;;19.87;11.53;;;;;;;42.33;32.55;101138.31;6157347;23;20392;-76
2022/09/21 12:33:11;;;;;;;16.80;9.00;;;;;;;42.18;32.65;101128.78;6132887;23;20391;-76
2022/09/21 12:35:52;;;;;;;18.37;10.40;;;;;;;42.28;32.64;101125.66;6183123;23;20438;-75
2022/09/21 12:38:21;;;;;;;17.87;9.60;;;;;;;41.99;33.35;101121.00;6154929;23;20512;-74
2022/09/21 12:40:54;;;;;;;14.27;8.30;;;;;;;41.71;33.53;101128.78;6157473;23;20376;-76
2022/09/21 12:43:49;;;;;;;15.33;9.83;;;;;;;41.89;33.65;101105.03;6205153;22;20479;-77
2022/09/21 12:46:28;;;;;;;17.10;8.40;;;;;;;41.66;33.49;101100.91;6186685;23;20855;-76
2022/09/21 12:48:55;;;;;;;20.40;9.40;;;;;;;41.70;33.13;101099.94;6186660;23;21251;-75
2022/09/21 12:51:31;;;;;;;16.63;8.27;;;;;;;41.23;33.64;101097.19;6188280;23;20406;-75
2022/09/21 12:54:07;;;;;;;16.07;11.07;;;;;;;41.46;33.84;101086.09;6187987;23;20375;-74
2022/09/21 12:56:53;;;;;;;20.47;11.73;;;;;;;41.73;33.35;101079.41;6187375;23;20407;-75
2022/09/21 12:59:42;;;;;;;13.97;10.40;;;;;;;42.19;33.05;101075.06;6188470;23;20391;-75
2022/09/21 13:02:20;;;;;;;15.30;9.17;;;;;;;41.19;34.13;101081.81;6186804;23;20395;-73
2022/09/21 13:05:15;;;;;;;20.40;9.00;;;;;;;41.50;33.70;101070.72;6215140;23;20352;-73
2022/09/21 13:07:59;;;;;;;22.90;10.10;;;;;;;41.93;33.28;101067.00;6187991;23;20414;-73
2022/09/21 13:10:54;;;;;;;15.63;10.07;;;;;;;41.88;33.08;101059.03;6187482;23;20780;-72
2022/09/21 13:13:35;;;;;;;21.43;9.97;;;;;;;41.74;33.29;101049.19;6188207;23;20391;-72
2022/09/21 13:16:08;;;;;;;20.47;9.60;;;;;;;41.96;32.57;101052.72;6185041;23;20374;-73
2022/09/21 13:18:37;;;;;;;25.53;11.17;;;;;;;41.93;32.95;101050.66;6158363;23;20392;-72
2022/09/21 13:21:25;;;;;;;11.57;8.40;;;;;;;42.62;31.73;101050.22;6158574;23;20384;-72
2022/09/21 13:24:00;;;;;;;23.50;9.50;;;;;;;42.43;31.82;101047.94;6158086;23;20498;-72
2022/09/21 13:26:39;;;;;;;17.83;11.17;;;;;;;42.27;32.24;101041.50;6157653;23;20402;-72
2022/09/21 13:29:27;;;;;;;12.33;9.50;;;;;;;42.29;32.35;101034.56;6158464;23;20392;-73
2022/09/21 13:32:10;;;;;;;22.73;10.20;;;;;;;42.39;31.88;101028.72;6183995;23;20470;-72
2022/09/21 13:34:44;;;;;;;18.53;10.83;;;;;;;42.82;31.54;101024.81;6136655;23;20385;-73
2022/09/21 13:37:19;;;;;;;20.10;9.80;;;;;;;42.78;31.49;101028.56;6158288;23;20450;-72
2022/09/21 13:39:48;;;;;;;19.83;10.07;;;;;;;42.89;31.42;101027.78;6158499;23;20847;-73
2022/09/21 13:42:32;;;;;;;29.27;10.13;;;;;;;42.73;31.49;101029.56;6158029;23;20440;-72
2022/09/21 13:45:14;;;;;;;16.17;11.30;;;;;;;43.01;31.52;101020.81;6158650;23;20865;-71
2022/09/21 13:47:42;;;;;;;16.73;9.60;;;;;;;43.07;31.00;101001.13;6136959;23;20381;-72
2022/09/21 13:50:20;;;;;;;21.43;9.80;;;;;;;42.95;30.99;100995.63;6158496;23;20852;-71
2022/09/21 13:52:53;;;;;;;18.90;9.43;;;;;;;43.10;30.93;100994.22;6133787;23;20377;-72
2022/09/21 13:55:20;;;;;;;13.70;9.00;;;;;;;42.99;31.21;100987.59;6158378;23;20376;-71
2022/09/21 13:57:49;;;;;;;14.57;10.57;;;;;;;42.58;31.66;100994.72;6158342;23;20381;-71
2022/09/21 14:00:18;;;;;;;18.10;9.30;;;;;;;42.72;31.82;100988.97;6157154;23;20414;-71
2022/09/21 14:02:51;;;;;;;25.93;10.63;;;;;;;42.81;31.53;100984.22;6156049;23;20416;-72
2022/09/21 14:05:41;;;;;;;16.77;10.50;;;;;;;43.03;31.29;100981.13;6182797;23;20609;-71
2022/09/21 14:08:14;;;;;;;18.47;8.83;;;;;;;42.50;30.97;100963.66;6131448;23;20411;-72
2022/09/21 14:10:48;;;;;;;18.47;10.80;;;;;;;42.39;31.77;100962.47;6156103;23;20372;-72
2022/09/21 14:13:28;;;;;;;30.83;10.87;;;;;;;42.87;31.04;100948.22;6155881;23;20426;-72
2022/09/21 14:16:14;;;;;;;14.20;8.40;;;;;;;43.03;31.29;100933.91;6158410;23;20427;-71
2022/09/21 14:18:40;;;;;;;29.43;15.50;;;;;;;43.03;31.50;100921.09;6160169;23;20384;-71
2022/09/21 14:21:17;;;;;;;20.77;10.30;;;;;;;42.97;31.37;100918.88;6186995;23;20388;-71
2022/09/21 14:24:06;;;;;;;24.70;11.43;;;;;;;42.92;31.34;100914.44;6186629;23;20451;-71
2022/09/21 14:26:40;;;;;;;19.10;11.93;;;;;;;42.64;32.29;100914.28;6159136;23;20857;-72
2022/09/21 14:29:23;;;;;;;19.03;9.00;;;;;;;42.37;31.98;100927.38;6159831;23;20371;-72
2022/09/21 14:31:53;;;;;;;19.93;11.13;;;;;;;42.68;32.10;100936.25;6160172;23;20459;-71
2022/09/21 14:34:24;;;;;;;17.20;11.00;;;;;;;42.78;31.82;100936.56;6159990;23;20372;-72
2022/09/21 14:36:56;;;;;;;18.47;9.40;;;;;;;42.51;32.54;100932.53;6160321;23;20376;-72
2022/09/21 14:39:36;;;;;;;14.30;9.10;;;;;;;42.51;31.96;100932.53;6159423;23;20412;-72
2022/09/21 14:42:18;;;;;;;23.23;8.57;;;;;;;42.09;32.19;100932.56;6159544;23;20590;-73
2022/09/21 14:44:50;;;;;;;22.17;8.20;;;;;;;41.77;32.36;100917.75;6159732;23;20391;-73
2022/09/21 14:47:50;;;;;;;17.87;8.97;;;;;;;41.69;32.33;100910.41;6159747;23;20404;-72
2022/09/21 14:50:41;;;;;;;21.40;9.00;;;;;;;42.46;31.89;100918.31;6159475;23;20780;-72
2022/09/21 14:53:29;;;;;;;20.07;10.03;;;;;;;42.39;31.93;100907.94;6159879;23;20411;-72
2022/09/21 14:56:10;;;;;;;14.53;8.87;;;;;;;42.34;32.20;100910.88;6159471;23;20381;-72
2022/09/21 14:58:55;;;;;;;28.93;12.67;;;;;;;42.36;32.17;100901.25;6159660;23;20734;-73
2022/09/21 15:01:40;;;;;;;21.77;10.97;;;;;;;42.67;30.85;100910.09;6159532;23;20412;-73
2022/09/21 15:04:20;;;;;;;19.00;11.63;;;;;;;42.51;31.12;100920.81;6186204;23;20487;-72
2022/09/21 15:12:37;;;;;;;15.83;10.67;;;;;;;42.72;31.02;100934.41;6186027;23;20395;-74
2022/09/21 15:15:12;;;;;;;24.63;11.10;;;;;;;42.80;31.40;100934.31;6158531;23;20406;-74
2022/09/21 15:17:51;;;;;;;20.23;9.60;;;;;;;42.57;31.48;100930.38;6159644;23;20474;-74
2022/09/21 15:20:22;;;;;;;23.13;8.80;;;;;;;42.82;31.56;100920.34;6159275;23;20446;-73
2022/09/21 15:22:48;;;;;;;32.93;12.27;;;;;;;42.72;31.75;100932.47;6159327;23;20776;-74
2022/09/21 15:25:14;;;;;;;22.33;9.47;;;;;;;42.73;31.50;100928.63;6159378;23;20389;-75
2022/09/21 15:27:45;;;;;;;17.53;10.20;;;;;;;42.93;31.42;100941.38;6186049;23;20900;-74
2022/09/21 15:30:23;;;;;;;16.40;9.73;;;;;;;42.87;31.38;100945.47;6186126;23;20400;-75
2022/09/21 15:33:00;;;;;;;14.80;10.73;;;;;;;42.71;32.08;100947.25;6186122;23;20353;-74
2022/09/21 15:35:29;;;;;;;22.50;10.73;;;;;;;42.94;31.76;100944.91;6184138;23;20392;-74
2022/09/21 15:37:59;;;;;;;26.17;13.20;;;;;;;42.52;31.94;100944.22;6159451;23;20396;-74
2022/09/21 15:40:30;;;;;;;16.73;10.47;;;;;;;42.54;31.77;100933.75;6159253;23;20392;-74
2022/09/21 15:43:17;;;;;;;27.50;12.57;;;;;;;42.45;32.02;100930.34;6158951;23;20474;-72
2022/09/21 15:46:17;;;;;;;20.57;8.70;;;;;;;42.27;32.48;100943.34;6137077;23;20388;-73
2022/09/21 15:48:45;;;;;;;17.50;8.80;;;;;;;42.72;32.08;100943.38;6096416;23;20408;-73
2022/09/21 15:51:22;;;;;;;21.43;11.10;;;;;;;42.43;32.17;100929.91;6158325;23;20399;-73
2022/09/21 15:54:18;;;;;;;18.40;11.03;;;;;;;42.39;32.72;100930.56;6158089;23;20383;-73
2022/09/21 15:56:44;;;;;;;16.80;8.80;;;;;;;42.32;32.65;100933.03;6115061;23;20857;-75
2022/09/21 15:59:16;;;;;;;18.23;10.53;;;;;;;42.36;32.66;100944.88;6156083;23;20434;-75
2022/09/21 16:01:46;;;;;;;25.53;13.10;;;;;;;42.37;32.91;100954.63;6158036;23;20391;-74
2022/09/21 16:04:23;;;;;;;20.70;11.97;;;;;;;42.23;33.03;100967.72;6158158;23;20443;-73
2022/09/21 16:07:05;;;;;;;20.07;9.93;;;;;;;42.06;33.15;100984.22;6158604;23;20391;-74
2022/09/21 16:09:44;;;;;;;16.10;9.50;;;;;;;42.34;32.95;100981.75;6183499;23;20384;-75
2022/09/21 16:12:25;;;;;;;18.00;9.93;;;;;;;42.65;32.67;100984.06;6185050;23;20829;-72
2022/09/21 16:15:31;;;;;;;16.17;11.53;;;;;;;42.59;32.48;100982.69;6157911;23;20403;-77
2022/09/21 16:18:00;;;;;;;21.53;11.07;;;;;;;42.63;32.46;100973.50;6155025;23;20392;-74
2022/09/21 16:20:47;;;;;;;24.90;13.90;;;;;;;42.61;32.34;100970.31;6184750;23;20396;-74
2022/09/21 16:23:20;;;;;;;17.60;10.90;;;;;;;42.56;32.52;100977.88;6181936;23;20919;-73
2022/09/21 16:25:54;;;;;;;20.33;9.77;;;;;;;42.61;32.52;100983.97;6158297;23;20724;-75
2022/09/21 16:28:20;;;;;;;32.83;13.50;;;;;;;42.57;32.46;100984.94;6156271;23;20868;-71
2022/09/21 16:30:51;;;;;;;16.83;9.70;;;;;;;42.53;32.61;100992.19;6182213;23;20942;-76
2022/09/21 16:33:42;;;;;;;30.10;12.33;;;;;;;42.42;32.51;101004.63;6182557;23;20361;-72
2022/09/21 16:36:30;;;;;;;20.50;10.43;;;;;;;42.19;32.31;101013.16;6182668;23;20349;-73
2022/09/21 16:38:56;;;;;;;18.57;11.47;;;;;;;42.31;32.61;101010.50;6155328;23;20388;-73
2022/09/21 16:41:26;;;;;;;18.57;10.80;;;;;;;42.28;32.18;101011.16;6156375;23;20415;-75
2022/09/21 16:43:53;;;;;;;20.70;10.60;;;;;;;41.97;33.04;101016.16;6179879;23;20435;-75
2022/09/21 16:46:19;;;;;;;20.03;9.83;;;;;;;42.00;32.76;101015.53;6157824;23;20416;-74
2022/09/21 16:48:44;;;;;;;15.47;9.27;;;;;;;42.29;32.07;101028.31;6158290;23;20800;-74
2022/09/21 16:51:23;;;;;;;16.70;9.47;;;;;;;42.17;32.17;101033.69;6158285;23;20385;-74
2022/09/21 16:53:52;;;;;;;22.20;9.40;;;;;;;41.97;32.34;101030.59;6158257;23;20199;-75
2022/09/21 16:56:18;;;;;;;16.93;9.30;;;;;;;42.04;32.72;101024.63;6184631;23;20360;-72
2022/09/21 16:58:44;;;;;;;18.27;9.53;;;;;;;41.81;32.63;101015.97;6158266;23;20466;-73
2022/09/21 17:01:19;;;;;;;17.87;10.57;;;;;;;41.86;32.58;100999.41;6157860;23;20470;-74
2022/09/21 17:03:46;;;;;;;15.47;9.40;;;;;;;42.19;32.53;101012.38;6158202;23;20423;-74
2022/09/21 17:06:17;;;;;;;21.13;12.23;;;;;;;42.32;32.29;101012.09;6158072;23;20865;-75
2022/09/21 17:08:48;;;;;;;17.10;10.70;;;;;;;42.43;32.01;101028.06;6157676;23;20383;-74